createdAt,value
2018-02-22T00:01:41.853Z,0.00
2018-02-22T00:04:09.313Z,0.00
2018-02-22T00:06:36.769Z,0.00
2018-02-22T00:09:04.996Z,0.00
2018-02-22T00:11:33.210Z,0.10
2018-02-22T00:14:00.668Z,0.10
2018-02-22T00:16:28.131Z,0.10
2018-02-22T00:18:55.600Z,0.00
2018-02-22T00:21:23.063Z,0.00
2018-02-22T00:23:50.526Z,0.10
2018-02-22T00:26:17.985Z,0.00
2018-02-22T00:28:45.606Z,0.00
2018-02-22T00:31:13.066Z,0.00
2018-02-22T00:33:40.533Z,0.00
2018-02-22T00:36:07.997Z,-0.10
2018-02-22T00:38:35.454Z,-0.20
2018-02-22T00:41:02.920Z,-0.10
2018-02-22T00:43:30.373Z,-0.20
2018-02-22T00:45:57.830Z,-0.20
2018-02-22T00:48:25.281Z,-0.10
2018-02-22T00:50:52.753Z,-0.20
2018-02-22T00:53:20.200Z,-0.20
2018-02-22T00:55:47.693Z,-0.20
2018-02-22T00:58:15.197Z,-0.20
2018-02-22T01:00:42.660Z,-0.30
2018-02-22T01:03:10.109Z,-0.20
2018-02-22T01:05:38.342Z,-0.20
2018-02-22T01:08:05.796Z,-0.30
2018-02-22T01:10:33.259Z,-0.20
2018-02-22T01:13:01.859Z,-0.20
2018-02-22T01:15:29.334Z,-0.20
2018-02-22T01:17:56.794Z,-0.20
2018-02-22T01:20:24.257Z,-0.30
2018-02-22T01:22:51.710Z,-0.40
2018-02-22T01:25:19.176Z,-0.40
2018-02-22T01:27:46.635Z,-0.40
2018-02-22T01:30:14.146Z,-0.50
2018-02-22T01:32:41.636Z,-0.60
2018-02-22T01:35:10.217Z,-0.60
2018-02-22T01:37:37.677Z,-0.60
2018-02-22T01:40:05.133Z,-0.50
2018-02-22T01:42:32.589Z,-0.70
2018-02-22T01:45:00.077Z,-0.60
2018-02-22T01:47:27.533Z,-0.60
2018-02-22T01:49:54.990Z,-0.70
2018-02-22T01:52:22.445Z,-0.60
2018-02-22T01:54:49.908Z,-0.60
2018-02-22T01:57:17.383Z,-0.60
2018-02-22T01:59:44.865Z,-0.50
2018-02-22T02:02:12.312Z,-0.50
2018-02-22T02:04:39.785Z,-0.60
2018-02-22T02:07:07.244Z,-0.60
2018-02-22T02:09:34.705Z,-0.70
2018-02-22T02:12:02.942Z,-0.70
2018-02-22T02:14:31.166Z,-0.50
2018-02-22T02:16:58.628Z,-0.60
2018-02-22T02:19:26.091Z,-0.50
2018-02-22T02:21:53.628Z,-0.60
2018-02-22T02:24:21.098Z,-0.70
2018-02-22T02:26:48.558Z,-0.70
2018-02-22T02:29:16.021Z,-0.70
2018-02-22T02:31:43.489Z,-0.60
2018-02-22T02:34:10.941Z,-0.70
2018-02-22T02:36:43.534Z,-0.70
2018-02-22T02:39:10.992Z,-0.70
2018-02-22T02:41:38.470Z,-0.80
2018-02-22T02:44:05.921Z,-0.80
2018-02-22T02:46:33.390Z,-0.90
2018-02-22T02:49:00.857Z,-0.90
2018-02-22T02:51:28.337Z,-0.80
2018-02-22T02:53:55.785Z,-0.80
2018-02-22T02:56:23.253Z,-0.70
2018-02-22T02:58:50.705Z,-0.80
2018-02-22T03:01:18.168Z,-0.80
2018-02-22T03:03:45.628Z,-0.80
2018-02-22T03:06:13.097Z,-0.80
2018-02-22T03:08:40.552Z,-0.70
2018-02-22T03:11:08.016Z,-0.70
2018-02-22T03:13:35.485Z,-0.90
2018-02-22T03:16:02.945Z,-0.90
2018-02-22T03:18:30.404Z,-0.90
2018-02-22T03:20:57.869Z,-1.00
2018-02-22T03:23:25.324Z,-1.00
2018-02-22T03:25:52.782Z,-0.90
2018-02-22T03:28:20.238Z,-1.00
2018-02-22T03:30:48.478Z,-1.00
2018-02-22T03:33:15.925Z,-1.10
2018-02-22T03:35:44.148Z,-1.00
2018-02-22T03:38:11.633Z,-1.00
2018-02-22T03:40:39.092Z,-1.10
2018-02-22T03:43:06.548Z,-1.00
2018-02-22T03:45:34.007Z,-1.00
2018-02-22T03:48:01.468Z,-0.90
2018-02-22T03:50:28.929Z,-1.00
2018-02-22T03:52:56.402Z,-0.90
2018-02-22T03:55:23.853Z,-1.00
2018-02-22T03:57:51.317Z,-1.10
2018-02-22T04:00:18.764Z,-1.10
2018-02-22T04:02:46.230Z,-1.10
2018-02-22T04:05:13.696Z,-1.00
2018-02-22T04:07:41.160Z,-1.10
2018-02-22T04:10:08.616Z,-1.10
2018-02-22T04:12:36.861Z,-1.10
2018-02-22T04:15:05.085Z,-1.20
2018-02-22T04:17:32.549Z,-1.20
2018-02-22T04:20:00.009Z,-1.20
2018-02-22T04:22:27.474Z,-1.20
2018-02-22T04:24:54.931Z,-1.10
2018-02-22T04:27:22.397Z,-1.20
2018-02-22T04:29:49.851Z,-1.20
2018-02-22T04:32:17.321Z,-1.20
2018-02-22T04:34:44.782Z,-1.20
2018-02-22T04:37:12.242Z,-1.30
2018-02-22T04:39:39.687Z,-1.30
2018-02-22T04:42:07.148Z,-1.30
2018-02-22T04:44:34.940Z,-1.30
2018-02-22T04:47:03.224Z,-1.40
2018-02-22T04:49:30.676Z,-1.40
2018-02-22T04:51:58.152Z,-1.40
2018-02-22T04:54:25.611Z,-1.30
2018-02-22T04:56:53.069Z,-1.30
2018-02-22T04:59:20.525Z,-1.40
2018-02-22T05:01:47.997Z,-1.30
2018-02-22T05:04:15.461Z,-1.40
2018-02-22T05:06:43.004Z,-1.50
2018-02-22T05:09:10.464Z,-1.40
2018-02-22T05:11:37.924Z,-1.30
2018-02-22T05:14:05.412Z,-1.50
2018-02-22T05:16:32.861Z,-1.40
2018-02-22T05:19:00.329Z,-1.40
2018-02-22T05:21:27.803Z,-1.50
2018-02-22T05:23:55.261Z,-1.40
2018-02-22T05:26:22.720Z,-1.50
2018-02-22T05:28:50.180Z,-1.50
2018-02-22T05:31:17.641Z,-1.50
2018-02-22T05:33:45.184Z,-1.50
2018-02-22T05:36:12.621Z,-1.50
2018-02-22T05:38:40.849Z,-1.50
2018-02-22T05:41:08.318Z,-1.50
2018-02-22T05:43:35.787Z,-1.50
2018-02-22T05:46:03.241Z,-1.60
2018-02-22T05:48:30.701Z,-1.50
2018-02-22T05:50:58.166Z,-1.40
2018-02-22T05:53:25.628Z,-1.60
2018-02-22T05:55:53.093Z,-1.50
2018-02-22T05:58:20.563Z,-1.60
2018-02-22T06:00:48.012Z,-1.60
2018-02-22T06:03:16.246Z,-1.70
2018-02-22T06:05:44.473Z,-1.60
2018-02-22T06:08:11.942Z,-1.60
2018-02-22T06:10:39.384Z,-1.50
2018-02-22T06:13:06.874Z,-1.50
2018-02-22T06:15:34.366Z,-1.60
2018-02-22T06:18:02.597Z,-1.40
2018-02-22T06:20:30.062Z,-1.50
2018-02-22T06:22:57.537Z,-1.40
2018-02-22T06:25:24.991Z,-1.40
2018-02-22T06:27:52.450Z,-1.50
2018-02-22T06:30:19.909Z,-1.50
2018-02-22T06:32:47.452Z,-1.40
2018-02-22T06:35:14.909Z,-1.40
2018-02-22T06:37:42.366Z,-1.40
2018-02-22T06:40:09.821Z,-1.40
2018-02-22T06:42:38.054Z,-1.40
2018-02-22T06:45:05.519Z,-1.40
2018-02-22T06:47:32.980Z,-1.40
2018-02-22T06:50:00.446Z,-1.40
2018-02-22T06:52:27.934Z,-1.40
2018-02-22T06:54:55.370Z,-1.40
2018-02-22T06:57:23.597Z,-1.50
2018-02-22T06:59:51.068Z,-1.50
2018-02-22T07:02:18.517Z,-1.30
2018-02-22T07:04:46.744Z,-1.30
2018-02-22T07:07:14.197Z,-1.40
2018-02-22T07:09:41.663Z,-1.40
2018-02-22T07:12:09.129Z,-1.30
2018-02-22T07:14:36.596Z,-1.40
2018-02-22T07:17:04.066Z,-1.30
2018-02-22T07:19:31.785Z,-1.30
2018-02-22T07:21:59.237Z,-1.30
2018-02-22T07:24:27.466Z,-1.30
2018-02-22T07:26:54.936Z,-1.30
2018-02-22T07:29:22.389Z,-1.20
2018-02-22T07:31:49.840Z,-1.20
2018-02-22T07:34:17.307Z,-1.20
2018-02-22T07:36:44.765Z,-1.10
2018-02-22T07:39:12.241Z,-1.10
2018-02-22T07:41:39.694Z,-1.00
2018-02-22T07:44:07.174Z,-1.00
2018-02-22T07:46:34.629Z,-1.10
2018-02-22T07:49:02.090Z,-1.10
2018-02-22T07:51:29.543Z,-0.90
2018-02-22T07:53:57.011Z,-0.90
2018-02-22T07:56:24.466Z,-1.00
2018-02-22T07:58:51.937Z,-0.90
2018-02-22T08:01:19.391Z,-0.90
2018-02-22T08:03:46.858Z,-1.00
2018-02-22T08:06:14.311Z,-0.90
2018-02-22T08:08:41.775Z,-1.00
2018-02-22T08:11:09.239Z,-1.00
2018-02-22T08:13:36.709Z,-1.10
2018-02-22T08:16:04.170Z,-1.00
2018-02-22T08:18:31.625Z,-0.90
2018-02-22T08:20:59.089Z,-0.90
2018-02-22T08:23:26.537Z,-1.00
2018-02-22T08:25:54.000Z,-0.90
2018-02-22T08:28:21.460Z,-0.90
2018-02-22T08:30:48.926Z,-1.00
2018-02-22T08:33:16.413Z,-0.90
2018-02-22T08:35:43.874Z,-0.90
2018-02-22T08:38:11.325Z,-0.90
2018-02-22T08:40:38.802Z,-0.90
2018-02-22T08:43:06.261Z,-1.00
2018-02-22T08:45:33.722Z,-0.90
2018-02-22T08:48:01.188Z,-0.80
2018-02-22T08:50:29.436Z,-0.80
2018-02-22T08:52:56.886Z,-0.80
2018-02-22T08:55:25.125Z,-0.80
2018-02-22T08:57:52.577Z,-0.80
2018-02-22T09:00:20.039Z,-0.70
2018-02-22T09:02:47.493Z,-0.80
2018-02-22T09:05:15.026Z,-0.70
2018-02-22T09:07:42.476Z,-0.60
2018-02-22T09:10:10.713Z,-0.70
2018-02-22T09:12:38.185Z,-0.70
2018-02-22T09:15:05.679Z,-0.70
2018-02-22T09:17:33.899Z,-0.60
2018-02-22T09:20:01.367Z,-0.60
2018-02-22T09:22:28.824Z,-0.60
2018-02-22T09:24:56.296Z,-0.50
2018-02-22T09:27:23.757Z,-0.50
2018-02-22T09:29:51.224Z,-0.50
2018-02-22T09:32:18.682Z,-0.40
2018-02-22T09:34:46.144Z,-0.40
2018-02-22T09:37:13.611Z,-0.40
2018-02-22T09:39:41.081Z,-0.40
2018-02-22T09:42:08.548Z,-0.40
2018-02-22T09:44:36.017Z,-0.30
2018-02-22T09:47:03.469Z,-0.30
2018-02-22T09:49:30.945Z,-0.30
2018-02-22T09:51:58.397Z,-0.30
2018-02-22T09:54:25.866Z,-0.30
2018-02-22T09:56:53.328Z,-0.10
2018-02-22T09:59:20.779Z,-0.20
2018-02-22T10:01:48.253Z,-0.20
2018-02-22T10:04:15.715Z,-0.10
2018-02-22T10:06:43.176Z,-0.10
2018-02-22T10:09:10.658Z,-0.10
2018-02-22T10:11:38.895Z,0.00
2018-02-22T10:14:06.340Z,0.00
2018-02-22T10:16:33.811Z,0.00
2018-02-22T10:19:01.316Z,0.10
2018-02-22T10:21:28.725Z,0.10
2018-02-22T10:23:56.180Z,0.10
2018-02-22T10:26:23.653Z,0.10
2018-02-22T10:28:51.109Z,0.20
2018-02-22T10:31:18.574Z,0.20
2018-02-22T10:33:46.020Z,0.20
2018-02-22T10:36:13.500Z,0.20
2018-02-22T10:38:40.936Z,0.20
2018-02-22T10:41:09.165Z,0.30
2018-02-22T10:43:36.621Z,0.30
2018-02-22T10:46:04.103Z,0.40
2018-02-22T10:48:31.554Z,0.40
2018-02-22T10:50:59.015Z,0.40
2018-02-22T10:53:26.465Z,0.40
2018-02-22T10:55:53.921Z,0.50
2018-02-22T10:58:21.378Z,0.60
2018-02-22T11:00:54.649Z,0.60
2018-02-22T11:03:22.861Z,0.60
2018-02-22T11:05:50.335Z,0.50
2018-02-22T11:08:17.780Z,0.60
2018-02-22T11:10:45.251Z,0.60
2018-02-22T11:13:12.704Z,0.60
2018-02-22T11:15:40.162Z,0.60
2018-02-22T11:18:07.613Z,0.70
2018-02-22T11:20:35.070Z,0.70
2018-02-22T11:23:02.525Z,0.70
2018-02-22T11:25:30.762Z,0.80
2018-02-22T11:27:58.979Z,0.80
2018-02-22T11:30:27.210Z,0.70
2018-02-22T11:32:54.668Z,0.80
2018-02-22T11:35:22.120Z,0.80
2018-02-22T11:37:49.590Z,0.80
2018-02-22T11:40:17.048Z,0.90
2018-02-22T11:42:44.518Z,0.90
2018-02-22T11:45:11.968Z,1.00
2018-02-22T11:47:39.422Z,1.00
2018-02-22T11:50:06.864Z,1.10
2018-02-22T11:52:35.093Z,1.20
2018-02-22T11:55:02.549Z,1.20
2018-02-22T11:57:30.009Z,1.20
2018-02-22T11:59:57.471Z,1.30
2018-02-22T12:02:24.920Z,1.40
2018-02-22T12:04:52.385Z,1.40
2018-02-22T12:07:19.841Z,1.40
2018-02-22T12:09:47.296Z,1.40
2018-02-22T12:12:14.767Z,1.50
2018-02-22T12:14:42.226Z,1.60
2018-02-22T12:17:09.685Z,1.70
2018-02-22T12:19:37.132Z,1.70
2018-02-22T12:22:04.589Z,1.80
2018-02-22T12:24:32.816Z,1.90
2018-02-22T12:27:00.300Z,1.90
2018-02-22T12:29:27.758Z,1.90
2018-02-22T12:31:55.218Z,1.90
2018-02-22T12:34:22.669Z,2.00
2018-02-22T12:36:50.945Z,2.20
2018-02-22T12:39:18.398Z,2.10
2018-02-22T12:41:45.865Z,2.30
2018-02-22T12:44:13.316Z,2.40
2018-02-22T12:46:40.772Z,2.50
2018-02-22T12:49:08.228Z,2.30
2018-02-22T12:51:35.685Z,2.30
2018-02-22T12:54:03.141Z,2.40
2018-02-22T12:56:31.363Z,2.50
2018-02-22T12:58:58.832Z,2.50
2018-02-22T13:01:26.285Z,2.70
2018-02-22T13:03:53.740Z,2.60
2018-02-22T13:06:21.198Z,2.60
2018-02-22T13:08:48.652Z,2.70
2018-02-22T13:11:16.111Z,2.70
2018-02-22T13:13:43.582Z,2.80
2018-02-22T13:16:11.033Z,2.60
2018-02-22T13:18:38.498Z,2.60
2018-02-22T13:21:05.945Z,2.50
2018-02-22T13:23:33.409Z,2.50
2018-02-22T13:26:00.880Z,2.50
2018-02-22T13:28:28.335Z,2.50
2018-02-22T13:30:55.780Z,2.40
2018-02-22T13:33:35.941Z,2.50
2018-02-22T13:36:04.161Z,2.40
2018-02-22T13:38:43.554Z,2.40
2018-02-22T13:41:11.766Z,2.30
2018-02-22T13:43:39.244Z,2.20
2018-02-22T13:46:06.692Z,2.20
2018-02-22T13:51:33.713Z,2.20
2018-02-22T13:54:01.955Z,2.20
2018-02-22T13:56:41.229Z,2.20
2018-02-22T13:59:09.483Z,2.10
2018-02-22T14:01:48.817Z,2.10
2018-02-22T14:04:16.278Z,2.20
2018-02-22T14:06:43.832Z,2.20
2018-02-22T14:09:11.291Z,2.20
2018-02-22T14:11:38.747Z,2.20
2018-02-22T14:14:06.964Z,2.20
2018-02-22T14:16:35.180Z,2.30
2018-02-22T14:19:02.641Z,2.20
2018-02-22T14:21:30.093Z,2.40
2018-02-22T14:23:57.718Z,2.40
2018-02-22T14:26:25.021Z,2.40
2018-02-22T14:28:52.483Z,2.20
2018-02-22T14:31:19.930Z,2.30
2018-02-22T14:33:47.439Z,2.30
2018-02-22T14:36:15.609Z,2.20
2018-02-22T14:38:43.074Z,2.20
2018-02-22T14:41:10.534Z,2.30
2018-02-22T14:43:37.996Z,2.30
2018-02-22T14:46:05.457Z,2.30
2018-02-22T14:48:32.908Z,2.30
2018-02-22T14:51:00.367Z,2.40
2018-02-22T14:53:27.852Z,2.40
2018-02-22T14:55:55.311Z,2.30
2018-02-22T14:58:23.541Z,2.40
2018-02-22T15:00:57.442Z,2.30
2018-02-22T15:03:25.682Z,2.30
2018-02-22T15:05:53.132Z,2.30
2018-02-22T15:08:20.599Z,2.30
2018-02-22T15:10:48.042Z,2.30
2018-02-22T15:13:15.511Z,2.20
2018-02-22T15:15:42.965Z,2.20
2018-02-22T15:18:10.435Z,2.20
2018-02-22T15:20:37.888Z,2.20
2018-02-22T15:23:05.336Z,2.20
2018-02-22T15:25:32.791Z,2.20
2018-02-22T15:28:01.022Z,2.30
2018-02-22T15:30:28.477Z,2.20
2018-02-22T15:32:55.936Z,2.30
2018-02-22T15:35:23.391Z,2.20
2018-02-22T15:37:50.854Z,2.30
2018-02-22T15:40:18.313Z,2.30
2018-02-22T15:42:45.775Z,2.20
2018-02-22T15:45:13.232Z,2.20
2018-02-22T15:47:40.699Z,2.20
2018-02-22T15:50:08.174Z,2.10
2018-02-22T15:52:35.633Z,2.20
2018-02-22T15:55:03.153Z,2.10
2018-02-22T15:57:30.566Z,2.10
2018-02-22T15:59:58.036Z,2.00
2018-02-22T16:02:25.475Z,2.00
2018-02-22T16:04:52.963Z,2.10
2018-02-22T16:07:20.410Z,2.00
2018-02-22T16:09:47.879Z,2.00
2018-02-22T16:12:15.339Z,2.00
2018-02-22T16:14:42.790Z,2.00
2018-02-22T16:17:10.255Z,2.00
2018-02-22T16:19:37.702Z,2.00
2018-02-22T16:22:05.150Z,2.00
2018-02-22T16:24:32.613Z,2.00
2018-02-22T16:27:00.831Z,2.00
2018-02-22T16:29:28.295Z,2.00
2018-02-22T16:31:55.759Z,2.00
2018-02-22T16:34:23.296Z,2.00
2018-02-22T16:36:50.737Z,2.00
2018-02-22T16:39:18.969Z,2.00
2018-02-22T16:41:47.174Z,2.00
2018-02-22T16:44:14.637Z,1.90
2018-02-22T16:46:42.089Z,1.90
2018-02-22T16:49:09.564Z,1.90
2018-02-22T16:51:37.015Z,1.90
2018-02-22T16:54:04.492Z,1.90
2018-02-22T16:56:31.953Z,1.90
2018-02-22T16:58:59.403Z,1.80
2018-02-22T17:01:26.852Z,1.80
2018-02-22T17:03:54.319Z,1.80
2018-02-22T17:06:21.765Z,1.80
2018-02-22T17:08:49.229Z,1.80
2018-02-22T17:11:16.677Z,1.80
2018-02-22T17:13:44.137Z,1.80
2018-02-22T17:16:11.586Z,1.70
2018-02-22T17:18:39.033Z,1.80
2018-02-22T17:21:07.258Z,1.70
2018-02-22T17:23:34.726Z,1.70
2018-02-22T17:26:07.965Z,1.70
2018-02-22T17:28:41.950Z,1.70
2018-02-22T17:31:15.169Z,1.70
2018-02-22T17:33:43.400Z,1.70
2018-02-22T17:36:11.759Z,1.70
2018-02-22T17:38:52.040Z,1.70
2018-02-22T17:41:23.299Z,1.60
2018-02-22T17:43:50.762Z,1.60
2018-02-22T17:46:18.230Z,1.60
2018-02-22T17:48:45.693Z,1.60
2018-02-22T17:51:13.162Z,1.60
2018-02-22T17:53:40.614Z,1.60
2018-02-22T17:56:08.078Z,1.60
2018-02-22T17:58:35.528Z,1.60
2018-02-22T18:01:02.984Z,1.60
2018-02-22T18:03:30.437Z,1.60
2018-02-22T18:05:57.900Z,1.60
2018-02-22T18:08:25.350Z,1.60
2018-02-22T18:10:52.804Z,1.50
2018-02-22T18:13:20.265Z,1.60
2018-02-22T18:15:47.718Z,1.60
2018-02-22T18:18:15.169Z,1.60
2018-02-22T18:20:43.394Z,1.60
2018-02-22T18:23:10.852Z,1.50
2018-02-22T18:25:38.324Z,1.50
2018-02-22T18:28:05.782Z,1.50
2018-02-22T18:30:33.254Z,1.60
2018-02-22T18:33:00.697Z,1.50
2018-02-22T18:35:28.175Z,1.60
2018-02-22T18:37:59.649Z,1.50
2018-02-22T18:40:32.690Z,1.50
2018-02-22T18:43:00.133Z,1.50
2018-02-22T18:45:28.414Z,1.50
2018-02-22T18:47:55.811Z,1.50
2018-02-22T18:50:23.266Z,1.50
2018-02-22T18:52:50.722Z,1.50
2018-02-22T18:55:18.186Z,1.50
2018-02-22T18:57:45.642Z,1.50
2018-02-22T19:00:13.110Z,1.50
2018-02-22T19:02:40.565Z,1.50
2018-02-22T19:05:08.032Z,1.50
2018-02-22T19:07:35.485Z,1.50
2018-02-22T19:10:02.942Z,1.50
2018-02-22T19:12:31.159Z,1.40
2018-02-22T19:14:58.628Z,1.40
2018-02-22T19:17:26.076Z,1.50
2018-02-22T19:19:53.525Z,1.50
2018-02-22T19:22:20.988Z,1.50
2018-02-22T19:24:48.450Z,1.40
2018-02-22T19:27:15.906Z,1.40
2018-02-22T19:29:43.372Z,1.40
2018-02-22T19:32:10.857Z,1.40
2018-02-22T19:34:38.294Z,1.40
2018-02-22T19:37:05.764Z,1.40
2018-02-22T19:39:33.216Z,1.40
2018-02-22T19:42:00.690Z,1.40
2018-02-22T19:44:28.130Z,1.40
2018-02-22T19:46:55.604Z,1.40
2018-02-22T19:49:23.053Z,1.40
2018-02-22T19:51:50.513Z,1.40
2018-02-22T19:54:18.742Z,1.40
2018-02-22T19:56:46.212Z,1.40
2018-02-22T19:59:13.696Z,1.40
2018-02-22T20:01:41.153Z,1.30
2018-02-22T20:04:08.629Z,1.30
2018-02-22T20:06:36.089Z,1.30
2018-02-22T20:09:04.305Z,1.30
2018-02-22T20:11:31.792Z,1.30
2018-02-22T20:13:59.223Z,1.30
2018-02-22T20:16:26.690Z,1.30
2018-02-22T20:18:54.148Z,1.30
2018-02-22T20:21:21.613Z,1.30
2018-02-22T20:23:49.064Z,1.30
2018-02-22T20:26:16.536Z,1.20
2018-02-22T20:28:43.994Z,1.20
2018-02-22T20:31:11.453Z,1.30
2018-02-22T20:33:38.937Z,1.30
2018-02-22T20:36:06.398Z,1.20
2018-02-22T20:38:33.857Z,1.30
2018-02-22T20:41:01.316Z,1.20
2018-02-22T20:43:28.787Z,1.20
2018-02-22T20:45:56.246Z,1.10
2018-02-22T20:48:23.729Z,1.10
2018-02-22T20:50:51.188Z,1.10
2018-02-22T20:53:24.255Z,1.10
2018-02-22T20:55:51.721Z,1.10
2018-02-22T20:58:19.193Z,1.10
2018-02-22T21:00:46.650Z,1.10
2018-02-22T21:03:16.025Z,1.10
2018-02-22T21:05:44.247Z,1.00
2018-02-22T21:08:11.710Z,1.00
2018-02-22T21:10:39.164Z,1.00
2018-02-22T21:13:06.637Z,1.00
2018-02-22T21:15:34.084Z,1.00
2018-02-22T21:18:01.558Z,1.00
2018-02-22T21:20:29.008Z,1.00
2018-02-22T21:22:56.486Z,1.00
2018-02-22T21:25:23.948Z,1.00
2018-02-22T21:27:51.423Z,1.00
2018-02-22T21:30:18.877Z,1.00
2018-02-22T21:32:46.347Z,1.00
2018-02-22T21:35:13.815Z,1.00
2018-02-22T21:37:41.289Z,0.90
2018-02-22T21:40:08.751Z,0.90
2018-02-22T21:42:36.212Z,0.90
2018-02-22T21:45:03.680Z,0.90
2018-02-22T21:47:31.191Z,0.90
2018-02-22T21:49:58.640Z,0.90
2018-02-22T21:52:26.865Z,0.90
2018-02-22T21:54:54.322Z,0.90
2018-02-22T21:57:21.791Z,0.80
2018-02-22T21:59:49.255Z,0.80
2018-02-22T22:02:16.716Z,0.80
2018-02-22T22:04:44.179Z,0.80
2018-02-22T22:07:11.634Z,0.80
2018-02-22T22:09:39.095Z,0.80
2018-02-22T22:12:06.557Z,0.80
2018-02-22T22:14:34.023Z,0.80
2018-02-22T22:17:01.486Z,0.80
2018-02-22T22:19:28.934Z,0.80
2018-02-22T22:21:56.409Z,0.80
2018-02-22T22:24:23.863Z,0.80
2018-02-22T22:26:51.326Z,0.70
2018-02-22T22:29:18.793Z,0.70
2018-02-22T22:31:46.265Z,0.70
2018-02-22T22:34:13.725Z,0.70
2018-02-22T22:36:41.184Z,0.70
2018-02-22T22:39:08.643Z,0.70
2018-02-22T22:41:36.114Z,0.70
2018-02-22T22:44:03.614Z,0.70
2018-02-22T22:46:31.051Z,0.60
2018-02-22T22:48:58.525Z,0.60
2018-02-22T22:51:25.973Z,0.60
2018-02-22T22:53:53.429Z,0.60
2018-02-22T22:56:20.890Z,0.60
2018-02-22T22:58:48.359Z,0.60
2018-02-22T23:01:15.813Z,0.60
2018-02-22T23:03:43.292Z,0.50
2018-02-22T23:06:10.740Z,0.50
2018-02-22T23:08:38.211Z,0.60
2018-02-22T23:11:05.655Z,0.60
2018-02-22T23:13:33.124Z,0.50
2018-02-22T23:16:00.585Z,0.50
2018-02-22T23:18:28.044Z,0.50
2018-02-22T23:20:55.512Z,0.60
2018-02-22T23:23:22.983Z,0.50
2018-02-22T23:25:50.452Z,0.50
2018-02-22T23:28:17.916Z,0.50
2018-02-22T23:30:45.377Z,0.50
2018-02-22T23:33:12.848Z,0.40
2018-02-22T23:35:40.298Z,0.40
2018-02-22T23:38:07.757Z,0.50
2018-02-22T23:40:41.019Z,0.50
2018-02-22T23:43:09.244Z,0.40
2018-02-22T23:45:36.693Z,0.40
2018-02-22T23:48:04.172Z,0.40
2018-02-22T23:50:31.615Z,0.40
2018-02-22T23:52:59.096Z,0.30
2018-02-22T23:55:26.551Z,0.40
2018-02-22T23:57:54.016Z,0.40
